Time;durP1;ratioP1;P1;durP2;ratioP2;P2;SDS_P1;SDS_P2;PMS_P1;PMS_P2;Temp;Humidity;BMP_temperature;BMP_pressure;BME280_temperature;BME280_humidity;BME280_pressure;Samples;Min_cycle;Max_cycle;Signal;HPM_P1;HPM_P2
2022/11/24 00:01:21;;;;;;;5.80;4.87;;;;;;;3.91;92.18;96815.72;6296296;28;20324;-43
2022/11/24 00:04:23;;;;;;;7.40;5.43;;;;;;;3.91;91.63;96813.94;6290996;28;20227;-43
2022/11/24 00:07:25;;;;;;;8.27;4.83;;;;;;;3.91;91.29;96821.75;6294757;28;20233;-43
2022/11/24 00:10:27;;;;;;;5.90;4.60;;;;;;;3.90;92.21;96824.47;6291502;28;20594;-43
2022/11/24 00:13:29;;;;;;;7.43;4.33;;;;;;;3.92;91.81;96830.44;6293830;28;20700;-43
2022/11/24 00:16:34;;;;;;;5.23;4.40;;;;;;;3.94;91.81;96832.00;6292342;28;20238;-43
2022/11/24 00:19:37;;;;;;;6.03;4.40;;;;;;;3.96;91.38;96840.56;6294390;28;20242;-43
2022/11/24 00:22:39;;;;;;;7.07;5.27;;;;;;;3.97;91.69;96836.19;6292060;28;20234;-43
2022/11/24 00:25:41;;;;;;;7.47;4.87;;;;;;;3.98;90.83;96830.88;6291575;28;20412;-43
2022/11/24 00:28:45;;;;;;;8.93;4.63;;;;;;;4.05;89.79;96839.94;6293315;28;20234;-43
2022/11/24 00:31:47;;;;;;;8.67;5.00;;;;;;;4.05;90.53;96842.56;6290877;28;20231;-43
2022/11/24 00:34:49;;;;;;;7.27;4.90;;;;;;;4.04;90.54;96845.28;6289669;28;20625;-43
2022/11/24 00:37:52;;;;;;;7.77;5.43;;;;;;;4.02;90.93;96849.75;6292478;28;20238;-43
2022/11/24 00:40:55;;;;;;;9.13;5.70;;;;;;;4.03;91.25;96841.81;6293443;28;20607;-43
2022/11/24 00:43:57;;;;;;;7.00;5.27;;;;;;;4.00;91.24;96849.00;6287655;28;20709;-43
2022/11/24 00:47:00;;;;;;;9.43;5.50;;;;;;;3.99;91.06;96858.63;6293683;28;20238;-43
2022/11/24 00:50:03;;;;;;;7.37;5.10;;;;;;;3.94;91.75;96846.84;6291954;28;20227;-43
2022/11/24 00:53:05;;;;;;;9.50;5.97;;;;;;;3.91;92.42;96852.25;6290926;28;20819;-43
2022/11/24 00:56:09;;;;;;;7.17;5.90;;;;;;;3.89;92.59;96865.44;6294165;28;20222;-43
2022/11/24 00:59:11;;;;;;;9.03;6.30;;;;;;;3.87;93.93;96867.28;6291266;28;20236;-43
2022/11/24 01:02:13;;;;;;;8.10;5.43;;;;;;;3.86;94.02;96864.78;6292154;28;20253;-43
2022/11/24 01:05:15;;;;;;;9.10;5.40;;;;;;;3.84;94.18;96867.50;6292907;28;20650;-43
2022/11/24 01:08:17;;;;;;;8.67;5.13;;;;;;;3.82;93.85;96868.53;6275390;28;20253;-43
2022/11/24 01:14:52;;;;;;;5.90;4.50;;;;;;;3.71;94.09;96879.66;6289061;28;20577;-42
2022/11/24 01:17:55;;;;;;;7.57;5.50;;;;;;;3.65;94.89;96875.69;6292011;28;20229;-43
2022/11/24 01:20:57;;;;;;;7.37;5.40;;;;;;;3.65;95.32;96877.47;6291763;28;20230;-43
2022/11/24 01:23:59;;;;;;;7.03;4.93;;;;;;;3.64;95.84;96873.19;6285402;28;20241;-43
2022/11/24 01:27:01;;;;;;;9.23;5.57;;;;;;;3.61;95.59;96879.44;6289761;28;20225;-42
2022/11/24 01:30:05;;;;;;;7.27;4.97;;;;;;;3.57;96.02;96884.97;6286188;28;20237;-42
2022/11/24 01:33:07;;;;;;;8.87;5.20;;;;;;;3.55;96.59;96887.66;6292384;28;20226;-43
2022/11/24 01:36:09;;;;;;;7.57;5.70;;;;;;;3.55;96.83;96890.28;6267286;28;20227;-43
2022/11/24 01:39:12;;;;;;;8.13;5.43;;;;;;;3.59;97.05;96896.94;6293168;28;20287;-42
2022/11/24 01:42:14;;;;;;;6.60;5.10;;;;;;;3.56;97.31;96899.78;6289304;28;20660;-43
2022/11/24 01:45:31;;;;;;;7.23;5.80;;;;;;;3.52;96.83;96900.06;6293525;28;20234;-42
2022/11/24 01:48:42;;;;;;;10.50;6.67;;;;;;;3.49;97.70;96910.72;6291862;28;20233;-42
2022/11/24 01:51:48;;;;;;;6.60;5.10;;;;;;;3.47;97.86;96912.59;6290226;28;20230;-43
2022/11/24 01:55:05;;;;;;;8.03;5.57;;;;;;;3.45;97.44;96912.69;6288544;28;20218;-42
2022/11/24 01:58:23;;;;;;;9.10;6.23;;;;;;;3.38;97.89;96906.19;6288994;28;20226;-42
2022/11/24 02:01:25;;;;;;;7.47;5.23;;;;;;;3.35;97.95;96914.19;6291079;28;20320;-42
2022/11/24 02:04:32;;;;;;;6.07;4.87;;;;;;;3.33;98.80;96916.06;6287376;28;20241;-43
2022/11/24 02:07:36;;;;;;;8.13;6.07;;;;;;;3.30;99.46;96911.88;6291865;28;20227;-43
2022/11/24 02:10:38;;;;;;;10.23;7.37;;;;;;;3.30;99.78;96900.59;6291066;28;20263;-43
2022/11/24 02:13:42;;;;;;;12.17;9.63;;;;;;;3.37;99.78;96916.72;6292273;28;20264;-43
2022/11/24 02:16:49;;;;;;;14.67;10.37;;;;;;;3.42;99.79;96909.41;6289273;28;20238;-43
2022/11/24 02:20:07;;;;;;;13.27;9.47;;;;;;;3.45;99.98;96901.41;6263108;28;20237;-43
2022/11/24 02:23:46;;;;;;;16.87;11.27;;;;;;;3.49;99.38;96913.31;6280856;28;20257;-43
2022/11/24 02:26:50;;;;;;;13.30;10.07;;;;;;;3.50;99.15;96904.53;6287772;28;20226;-42
2022/11/24 02:29:53;;;;;;;13.93;10.77;;;;;;;3.51;98.24;96901.00;6287919;28;20239;-42
2022/11/24 02:32:55;;;;;;;12.80;9.90;;;;;;;3.51;98.54;96901.00;6284968;28;20225;-42
2022/11/24 02:35:57;;;;;;;12.70;9.87;;;;;;;3.52;98.56;96905.28;6272655;28;20739;-42
2022/11/24 02:38:59;;;;;;;14.53;9.87;;;;;;;3.53;97.75;96912.19;6289997;28;20608;-42
2022/11/24 02:42:09;;;;;;;14.23;11.00;;;;;;;3.56;96.74;96906.78;6288143;28;20236;-43
2022/11/24 02:45:14;;;;;;;14.83;10.60;;;;;;;3.55;96.48;96898.09;6287729;28;20322;-42
2022/11/24 02:48:16;;;;;;;13.33;11.07;;;;;;;3.52;96.64;96898.28;6290533;28;20222;-42
2022/11/24 02:51:18;;;;;;;11.53;9.27;;;;;;;3.51;96.40;96901.84;6290774;28;20230;-42
2022/11/24 02:54:21;;;;;;;10.00;8.83;;;;;;;3.48;96.29;96896.84;6288507;28;20240;-42
2022/11/24 02:57:23;;;;;;;12.07;9.17;;;;;;;3.44;96.68;96905.78;6288464;28;20303;-43
2022/11/24 03:00:25;;;;;;;12.77;9.53;;;;;;;3.41;96.97;96908.56;6291380;28;20305;-43
2022/11/24 03:03:27;;;;;;;11.43;8.77;;;;;;;3.40;94.97;96913.88;6290229;28;20233;-42
2022/11/24 03:06:29;;;;;;;10.13;8.20;;;;;;;3.40;95.44;96913.88;6291121;28;20229;-43
2022/11/24 03:09:32;;;;;;;11.43;8.17;;;;;;;3.35;94.28;96903.78;6289466;28;20229;-43
2022/11/24 03:12:34;;;;;;;9.90;7.10;;;;;;;3.36;94.13;96907.22;6296323;28;20226;-43
2022/11/24 03:15:36;;;;;;;9.57;7.43;;;;;;;3.32;94.30;96911.78;6290302;28;20227;-43
2022/11/24 03:18:39;;;;;;;8.73;6.80;;;;;;;3.29;94.59;96925.84;6290644;28;20785;-43
2022/11/24 03:21:41;;;;;;;9.77;6.80;;;;;;;3.24;93.76;96916.66;6290742;28;20218;-43
2022/11/24 03:24:43;;;;;;;9.30;7.47;;;;;;;3.14;93.87;96918.16;6288365;28;20234;-43
2022/11/24 03:27:45;;;;;;;9.70;6.67;;;;;;;3.09;94.00;96926.28;6295972;28;20217;-42
2022/11/24 03:30:49;;;;;;;8.40;7.30;;;;;;;3.08;94.40;96935.03;6289071;28;20240;-43
2022/11/24 03:33:51;;;;;;;7.90;6.57;;;;;;;3.06;94.25;96928.22;6294714;28;20222;-43
2022/11/24 03:36:53;;;;;;;9.63;6.63;;;;;;;3.05;93.93;96934.38;6294492;28;20233;-43
2022/11/24 03:39:55;;;;;;;6.93;6.20;;;;;;;3.02;93.96;96934.56;6293833;28;20232;-43
2022/11/24 03:42:57;;;;;;;6.60;5.80;;;;;;;2.95;94.03;96934.94;6291935;28;20255;-43
2022/11/24 03:45:59;;;;;;;6.37;5.57;;;;;;;2.85;93.85;96940.81;6278179;28;20577;-43
2022/11/24 03:49:02;;;;;;;8.67;7.20;;;;;;;2.89;94.53;96932.75;6292590;28;20233;-43
2022/11/24 03:52:04;;;;;;;10.77;7.57;;;;;;;2.93;94.37;96941.19;6286857;28;20237;-43
2022/11/24 03:55:09;;;;;;;11.10;8.30;;;;;;;2.94;95.07;96937.66;6289207;28;20232;-43
2022/11/24 03:58:11;;;;;;;8.67;7.77;;;;;;;2.94;94.95;96938.47;6293313;28;20230;-42
2022/11/24 04:01:13;;;;;;;9.27;8.00;;;;;;;3.07;94.51;96942.94;6294355;28;20235;-42
2022/11/24 04:04:15;;;;;;;10.23;6.70;;;;;;;3.08;94.38;96949.84;6289500;28;20715;-42
2022/11/24 04:07:17;;;;;;;9.50;8.07;;;;;;;3.08;94.61;96947.22;6294083;28;20237;-43
2022/11/24 04:10:20;;;;;;;7.83;7.00;;;;;;;3.06;94.59;96952.53;6276858;28;20268;-42
2022/11/24 04:13:24;;;;;;;8.00;6.30;;;;;;;3.01;94.50;96951.13;6291241;28;20618;-42
2022/11/24 04:16:26;;;;;;;7.67;6.30;;;;;;;2.92;95.39;96958.59;6291080;28;20246;-43
2022/11/24 04:19:28;;;;;;;9.27;7.00;;;;;;;2.94;95.43;96967.16;6292861;28;20336;-43
2022/11/24 04:22:31;;;;;;;8.10;6.77;;;;;;;2.99;94.71;96963.44;6289585;28;20230;-43
2022/11/24 04:25:33;;;;;;;7.57;6.07;;;;;;;2.98;94.79;96970.41;6276100;28;20731;-42
2022/11/24 04:28:36;;;;;;;7.77;5.87;;;;;;;2.94;94.98;96976.75;6291407;28;20234;-42
2022/11/24 04:31:38;;;;;;;7.70;6.33;;;;;;;2.94;95.06;96989.78;6291661;28;20248;-43
2022/11/24 04:34:40;;;;;;;6.43;5.73;;;;;;;2.96;95.62;96985.31;6292245;28;20231;-43
2022/11/24 04:37:42;;;;;;;7.47;5.53;;;;;;;2.92;94.56;96989.84;6286496;28;20262;-43
2022/11/24 04:40:44;;;;;;;6.03;5.03;;;;;;;2.89;95.95;96989.22;6293193;28;20238;-42
2022/11/24 04:43:50;;;;;;;4.40;4.00;;;;;;;2.86;96.11;96992.84;6293157;28;20236;-43
2022/11/24 04:46:52;;;;;;;5.60;3.87;;;;;;;2.90;95.72;96998.69;6290852;28;20226;-43
2022/11/24 04:49:54;;;;;;;4.43;3.93;;;;;;;2.87;95.39;97007.56;6293624;28;20602;-43
2022/11/24 04:52:56;;;;;;;4.73;3.90;;;;;;;2.81;96.05;97007.91;6289320;28;20237;-43
2022/11/24 04:56:02;;;;;;;3.83;3.43;;;;;;;2.86;95.79;97010.25;6293217;28;20229;-43
2022/11/24 04:59:05;;;;;;;3.27;2.97;;;;;;;2.84;95.85;97015.53;6294200;28;20699;-44
2022/11/24 05:02:09;;;;;;;3.13;2.83;;;;;;;2.82;95.58;97013.94;6271301;28;20235;-42
2022/11/24 05:05:12;;;;;;;3.40;3.10;;;;;;;2.79;96.52;97012.41;6288548;28;20325;-42
2022/11/24 05:08:14;;;;;;;4.03;3.37;;;;;;;2.80;96.47;97021.84;6291418;28;20236;-43
2022/11/24 05:11:17;;;;;;;2.70;2.50;;;;;;;2.78;96.42;97017.69;6290414;28;20222;-43
2022/11/24 05:14:19;;;;;;;2.83;2.63;;;;;;;2.72;96.40;97025.84;6290101;28;20245;-43
2022/11/24 05:17:21;;;;;;;2.70;2.50;;;;;;;2.66;96.49;97019.25;6291304;28;20235;-43
2022/11/24 05:20:24;;;;;;;2.87;2.47;;;;;;;2.64;96.84;97025.47;6293868;28;20323;-42
2022/11/24 05:23:26;;;;;;;3.07;2.77;;;;;;;2.61;96.84;97031.69;6287463;28;20235;-43
2022/11/24 05:26:28;;;;;;;3.43;3.07;;;;;;;2.68;97.29;97035.63;6292273;28;20230;-43
2022/11/24 05:29:30;;;;;;;7.60;2.77;;;;;;;2.73;96.48;97048.38;6291008;28;20737;-43
2022/11/24 05:32:33;;;;;;;2.50;2.30;;;;;;;2.75;96.58;97039.53;6290295;28;20339;-43
2022/11/24 05:35:35;;;;;;;2.80;2.50;;;;;;;2.80;96.46;97047.06;6293307;28;20232;-43
2022/11/24 05:38:37;;;;;;;2.63;2.43;;;;;;;2.90;95.44;97048.19;6290724;28;20292;-43
2022/11/24 05:41:41;;;;;;;2.17;1.90;;;;;;;2.90;95.44;97049.03;6292463;28;20321;-43
2022/11/24 05:44:43;;;;;;;2.33;2.13;;;;;;;2.86;95.63;97050.16;6274889;28;20619;-43
2022/11/24 05:47:46;;;;;;;2.30;2.10;;;;;;;2.80;96.05;97045.31;6291008;28;20260;-43
2022/11/24 05:50:54;;;;;;;2.00;1.60;;;;;;;2.83;95.52;97050.34;6284032;28;20342;-43
2022/11/24 05:53:56;;;;;;;2.00;1.87;;;;;;;2.83;95.47;97070.34;6288888;28;20593;-42
2022/11/24 05:56:58;;;;;;;1.80;1.70;;;;;;;2.91;95.14;97075.94;6290473;28;20605;-43
2022/11/24 06:00:01;;;;;;;1.87;1.37;;;;;;;3.02;94.22;97075.31;6291079;28;20257;-42
2022/11/24 06:03:13;;;;;;;1.30;1.20;;;;;;;3.01;94.05;97071.00;6286356;28;20218;-42
2022/11/24 06:06:15;;;;;;;0.97;0.93;;;;;;;2.96;94.47;97087.78;6290738;28;20595;-42
2022/11/24 06:09:17;;;;;;;1.20;1.10;;;;;;;3.03;94.55;97084.81;6289438;28;20968;-42
2022/11/24 06:12:19;;;;;;;1.90;1.10;;;;;;;3.01;93.90;97095.31;6285200;28;20300;-43
2022/11/24 06:15:21;;;;;;;1.00;0.90;;;;;;;2.97;94.25;97096.44;6271384;28;20237;-43
2022/11/24 06:18:23;;;;;;;1.30;1.10;;;;;;;2.93;94.09;97106.19;6293544;28;20747;-43
2022/11/24 06:21:26;;;;;;;0.90;0.90;;;;;;;2.91;94.17;97102.00;6271579;28;20230;-43
2022/11/24 06:24:29;;;;;;;1.03;0.93;;;;;;;2.90;94.45;97110.75;6273466;28;20478;-42
2022/11/24 06:27:31;;;;;;;1.43;1.10;;;;;;;2.95;94.80;97111.31;6290427;28;20705;-43
2022/11/24 06:30:33;;;;;;;0.97;0.90;;;;;;;2.99;94.45;97117.22;6289892;28;20257;-43
2022/11/24 06:33:37;;;;;;;0.70;0.70;;;;;;;3.00;93.90;97122.31;6267449;28;20234;-44
2022/11/24 06:36:39;;;;;;;1.17;1.07;;;;;;;2.93;94.10;97121.84;6282222;28;20222;-46
2022/11/24 06:39:41;;;;;;;0.90;0.90;;;;;;;2.99;95.07;97125.03;6289611;28;20313;-43
2022/11/24 06:42:50;;;;;;;1.20;1.10;;;;;;;3.06;94.57;97124.56;6290654;28;20297;-43
2022/11/24 06:45:52;;;;;;;1.30;1.07;;;;;;;3.18;94.68;97126.44;6287507;28;20752;-43
2022/11/24 06:48:54;;;;;;;1.83;1.30;;;;;;;3.23;93.68;97131.38;6272495;28;20371;-43
2022/11/24 06:51:56;;;;;;;1.27;1.10;;;;;;;3.23;93.78;97131.38;6286604;28;20605;-43
2022/11/24 06:54:58;;;;;;;1.13;1.03;;;;;;;3.25;94.39;97135.56;6287709;28;20590;-43
2022/11/24 06:58:00;;;;;;;1.37;1.27;;;;;;;3.31;94.49;97140.41;6292111;28;20236;-43
2022/11/24 07:01:02;;;;;;;1.80;1.30;;;;;;;3.38;94.18;97142.66;6292744;28;20237;-43
2022/11/24 07:04:04;;;;;;;1.03;0.83;;;;;;;3.40;94.23;97140.78;6295862;28;20248;-43
2022/11/24 07:07:07;;;;;;;1.50;1.40;;;;;;;3.42;93.71;97150.19;6295519;28;20230;-43
2022/11/24 07:10:09;;;;;;;2.17;1.83;;;;;;;3.54;93.15;97154.69;6295788;28;20233;-43
2022/11/24 07:13:11;;;;;;;1.77;1.67;;;;;;;3.68;92.42;97159.06;6287568;28;20239;-43
2022/11/24 07:16:24;;;;;;;2.00;1.80;;;;;;;3.75;92.26;97160.38;6294072;28;20390;-43
2022/11/24 07:19:26;;;;;;;1.60;1.50;;;;;;;3.86;90.40;97164.94;6294107;28;20803;-42
2022/11/24 07:22:28;;;;;;;1.90;1.70;;;;;;;3.93;90.97;97163.59;6293636;28;20283;-44
2022/11/24 07:25:30;;;;;;;1.67;1.57;;;;;;;3.97;91.19;97173.78;6289936;28;20325;-43
2022/11/24 07:28:33;;;;;;;1.80;1.70;;;;;;;4.01;91.75;97177.84;6293336;28;20320;-43
2022/11/24 07:31:35;;;;;;;1.83;1.67;;;;;;;4.07;91.73;97171.44;6293047;28;20235;-42
2022/11/24 07:34:37;;;;;;;1.60;1.50;;;;;;;4.13;90.94;97184.09;6276176;28;20721;-42
2022/11/24 07:37:39;;;;;;;1.57;1.37;;;;;;;4.17;91.54;97193.41;6276376;28;20695;-42
2022/11/24 07:40:42;;;;;;;1.63;1.40;;;;;;;4.19;91.25;97186.34;6289930;28;20356;-42
2022/11/24 07:43:45;;;;;;;1.70;1.40;;;;;;;4.23;91.24;97195.63;6276512;28;20391;-42
2022/11/24 07:46:50;;;;;;;2.20;1.60;;;;;;;4.25;91.00;97192.94;6291812;28;20235;-42
2022/11/24 07:49:52;;;;;;;1.50;1.40;;;;;;;4.25;91.80;97201.59;6295521;28;20232;-42
2022/11/24 07:52:54;;;;;;;1.27;1.17;;;;;;;4.25;92.24;97198.16;6289922;28;20737;-44
2022/11/24 07:56:00;;;;;;;1.50;1.40;;;;;;;4.28;92.40;97198.81;6293965;28;20275;-42
2022/11/24 07:59:03;;;;;;;1.43;1.33;;;;;;;4.31;91.27;97206.44;6290307;28;20238;-41
2022/11/24 08:02:05;;;;;;;1.83;1.50;;;;;;;4.35;92.52;97204.47;6280971;28;20338;-42
2022/11/24 08:05:08;;;;;;;1.30;1.13;;;;;;;4.35;91.95;97194.88;6287273;28;20328;-42
2022/11/24 08:08:10;;;;;;;1.70;1.23;;;;;;;4.32;93.41;97207.28;6291272;28;20326;-42
2022/11/24 08:11:14;;;;;;;1.30;1.10;;;;;;;4.28;94.44;97211.03;6292782;28;20224;-42
2022/11/24 08:14:16;;;;;;;1.37;1.20;;;;;;;4.27;94.90;97207.59;6291830;28;20232;-42
2022/11/24 08:17:19;;;;;;;1.57;1.10;;;;;;;4.28;94.91;97211.88;6294229;28;20241;-42
2022/11/24 08:20:21;;;;;;;1.50;1.20;;;;;;;4.29;95.60;97204.88;6287794;28;20222;-43
2022/11/24 08:23:23;;;;;;;1.47;1.10;;;;;;;4.28;95.19;97209.25;6286355;28;20310;-42
2022/11/24 08:26:25;;;;;;;1.03;0.93;;;;;;;4.30;96.30;97206.53;6291167;28;20318;-42
2022/11/24 08:29:31;;;;;;;1.27;1.07;;;;;;;4.29;96.94;97208.31;6293304;28;20249;-43
2022/11/24 08:32:33;;;;;;;2.23;1.50;;;;;;;4.30;96.51;97207.38;6291409;28;20256;-42
2022/11/24 08:35:36;;;;;;;1.20;1.10;;;;;;;4.31;96.86;97219.50;6279565;28;20880;-43
2022/11/24 08:38:39;;;;;;;1.63;1.53;;;;;;;4.33;97.77;97217.63;6292959;28;20616;-42
2022/11/24 08:41:41;;;;;;;1.23;1.10;;;;;;;4.34;97.18;97223.69;6293343;28;20229;-42
2022/11/24 08:44:43;;;;;;;1.50;1.33;;;;;;;4.39;98.01;97226.88;6293099;28;20221;-41
2022/11/24 08:47:51;;;;;;;1.47;1.37;;;;;;;4.40;97.57;97223.31;6290691;28;20233;-41
2022/11/24 08:50:53;;;;;;;1.50;1.40;;;;;;;4.43;97.76;97221.34;6292437;28;20735;-44
2022/11/24 08:53:57;;;;;;;2.13;1.80;;;;;;;4.48;98.11;97233.28;6291711;28;20233;-42
2022/11/24 08:56:59;;;;;;;1.70;1.50;;;;;;;4.52;98.62;97232.16;6292746;28;20710;-42
2022/11/24 09:00:04;;;;;;;2.80;2.03;;;;;;;4.56;98.78;97231.03;6291446;28;20223;-42
2022/11/24 09:03:06;;;;;;;1.73;1.63;;;;;;;4.60;99.17;97235.09;6290212;28;20220;-42
2022/11/24 09:06:08;;;;;;;2.97;2.40;;;;;;;4.63;99.09;97240.16;6292065;28;20705;-42
2022/11/24 09:09:10;;;;;;;4.27;2.87;;;;;;;4.67;99.46;97239.03;6293253;28;20334;-43
2022/11/24 09:12:12;;;;;;;5.20;2.97;;;;;;;4.72;98.85;97232.56;6287245;28;20228;-42
2022/11/24 09:15:16;;;;;;;6.97;3.30;;;;;;;4.78;99.60;97226.97;6288701;28;20276;-42
2022/11/24 09:18:18;;;;;;;6.70;3.63;;;;;;;4.83;99.35;97239.72;6290465;28;20562;-42
2022/11/24 09:21:21;;;;;;;6.33;3.20;;;;;;;4.91;99.17;97229.59;6291970;28;20235;-42
2022/11/24 09:24:24;;;;;;;6.60;3.30;;;;;;;4.99;99.15;97229.13;6288082;28;20311;-42
2022/11/24 09:27:26;;;;;;;3.20;2.90;;;;;;;5.06;99.10;97230.38;6292587;28;20363;-42
2022/11/24 09:30:28;;;;;;;5.30;3.57;;;;;;;5.11;99.01;97233.53;6293427;28;20409;-43
2022/11/24 09:33:32;;;;;;;6.77;4.00;;;;;;;5.12;99.11;97225.59;6284270;28;20228;-43
2022/11/24 09:36:35;;;;;;;8.87;3.50;;;;;;;5.15;98.93;97227.16;6290602;28;20252;-42
2022/11/24 09:39:37;;;;;;;4.07;3.43;;;;;;;5.18;98.64;97225.19;6290936;28;20247;-42
2022/11/24 09:43:18;;;;;;;4.00;2.80;;;;;;;5.28;98.54;97224.59;6291851;28;20226;-42
2022/11/24 09:46:20;;;;;;;3.00;2.73;;;;;;;5.30;98.94;97236.59;6259173;28;20366;-43
2022/11/24 09:49:47;;;;;;;4.97;3.40;;;;;;;5.35;99.06;97229.31;6291363;28;20422;-43
2022/11/24 09:53:04;;;;;;;4.27;3.27;;;;;;;5.37;99.12;97235.28;6271106;28;20311;-43
2022/11/24 09:56:25;;;;;;;4.37;3.20;;;;;;;5.40;99.63;97236.81;6293818;28;20350;-43
2022/11/24 09:59:27;;;;;;;4.93;3.17;;;;;;;5.41;99.72;97241.97;6291802;28;20301;-41
2022/11/24 10:02:29;;;;;;;7.17;2.80;;;;;;;5.42;100.00;97235.78;6292516;28;21764;-43
2022/11/24 10:05:34;;;;;;;5.27;3.00;;;;;;;5.42;100.00;97232.34;6290982;28;20248;-43
2022/11/24 10:09:10;;;;;;;4.53;3.47;;;;;;;5.41;100.00;97235.88;6291661;28;20236;-42
2022/11/24 10:12:29;;;;;;;3.97;3.00;;;;;;;5.43;100.00;97232.25;6288937;28;20318;-42
2022/11/24 10:16:19;;;;;;;7.07;2.90;;;;;;;5.46;100.00;97231.19;6284700;28;20227;-42
2022/11/24 10:19:51;;;;;;;8.10;3.23;;;;;;;5.47;100.00;97238.13;6269113;28;20689;-42
2022/11/24 10:23:17;;;;;;;5.23;3.00;;;;;;;5.51;100.00;97239.56;6270319;28;20241;-42
2022/11/24 10:26:25;;;;;;;5.37;3.43;;;;;;;5.51;100.00;97242.19;6290236;28;20292;-44
2022/11/24 10:29:38;;;;;;;3.57;2.97;;;;;;;5.53;100.00;97232.47;6288435;28;20330;-42
2022/11/24 10:33:06;;;;;;;3.50;2.90;;;;;;;5.56;100.00;97240.13;6290383;28;20712;-42
2022/11/24 10:36:18;;;;;;;3.03;2.50;;;;;;;5.61;100.00;97251.09;6289186;28;20227;-42
2022/11/24 10:39:26;;;;;;;6.43;3.20;;;;;;;5.66;100.00;97242.94;6282785;28;20233;-42
2022/11/24 10:42:32;;;;;;;4.93;3.00;;;;;;;5.78;99.65;97249.97;6289899;28;20230;-42
2022/11/24 10:45:36;;;;;;;3.33;2.63;;;;;;;5.90;99.02;97244.75;6287266;28;20252;-42
2022/11/24 10:49:03;;;;;;;3.33;2.50;;;;;;;5.93;99.26;97238.47;6286674;28;20228;-42
2022/11/24 10:52:13;;;;;;;3.83;2.43;;;;;;;5.92;98.67;97231.56;6289417;28;20804;-43
2022/11/24 10:55:16;;;;;;;5.30;2.40;;;;;;;5.99;97.48;97234.63;6287422;28;20231;-42
2022/11/24 10:58:30;;;;;;;3.47;2.13;;;;;;;6.12;95.80;97240.66;6289271;28;20608;-42
2022/11/24 11:01:38;;;;;;;3.07;2.00;;;;;;;6.21;96.09;97240.00;6293532;28;20651;-42
2022/11/24 11:04:40;;;;;;;6.17;2.23;;;;;;;6.26;96.28;97236.16;6284962;28;20766;-42
2022/11/24 11:07:42;;;;;;;3.60;1.90;;;;;;;6.26;96.48;97241.38;6288568;28;20241;-42
2022/11/24 11:10:46;;;;;;;4.70;2.13;;;;;;;6.22;96.85;97245.16;6296176;28;20511;-42
2022/11/24 11:13:55;;;;;;;3.93;2.10;;;;;;;6.16;96.30;97242.97;6292481;28;20730;-42
2022/11/24 11:17:42;;;;;;;4.93;1.90;;;;;;;6.17;95.73;97239.41;6280664;28;20727;-43
2022/11/24 11:20:53;;;;;;;5.00;2.27;;;;;;;6.18;96.37;97230.59;6165198;28;20288;-42
2022/11/24 11:23:56;;;;;;;2.60;1.67;;;;;;;6.21;96.94;97237.41;6161142;28;20299;-42
2022/11/24 11:27:04;;;;;;;1.73;1.60;;;;;;;6.29;97.08;97242.94;6158315;28;20746;-42
2022/11/24 11:30:26;;;;;;;4.00;2.10;;;;;;;6.33;97.86;97238.31;6164027;28;20444;-42
2022/11/24 11:34:13;;;;;;;1.87;1.63;;;;;;;6.37;97.39;97237.19;6157977;28;20251;-43
2022/11/24 11:37:31;;;;;;;4.13;1.83;;;;;;;6.43;97.01;97232.31;6159340;28;20249;-42
2022/11/24 11:40:33;;;;;;;2.50;1.77;;;;;;;6.53;97.35;97237.75;6159292;28;20649;-42
2022/11/24 11:43:39;;;;;;;4.27;2.10;;;;;;;6.61;95.25;97230.16;6163538;28;20322;-42
2022/11/24 11:46:43;;;;;;;4.73;2.00;;;;;;;6.85;94.58;97231.03;6166018;28;20244;-42
2022/11/24 11:49:47;;;;;;;3.93;1.80;;;;;;;7.04;94.17;97227.91;6167372;28;20244;-42
2022/11/24 11:52:58;;;;;;;5.63;2.23;;;;;;;7.12;92.32;97236.06;6168658;28;20397;-43
2022/11/24 11:56:24;;;;;;;6.47;2.70;;;;;;;7.17;91.13;97227.84;6292903;28;20237;-42
2022/11/24 11:59:38;;;;;;;5.43;2.10;;;;;;;7.17;90.56;97239.19;6292368;28;20237;-42
2022/11/24 12:03:25;;;;;;;4.53;1.90;;;;;;;7.18;89.62;97237.41;6292558;28;20233;-43
2022/11/24 12:06:55;;;;;;;3.03;1.63;;;;;;;7.32;89.59;97242.44;6149748;28;20740;-42
2022/11/24 12:10:21;;;;;;;5.20;1.70;;;;;;;7.37;87.91;97237.72;6162661;28;20265;-44
2022/11/24 12:13:41;;;;;;;3.40;1.50;;;;;;;7.41;87.43;97241.75;6174559;28;20320;-44
2022/11/24 12:17:14;;;;;;;3.27;1.73;;;;;;;7.54;88.28;97239.06;6166683;28;20264;-43
2022/11/24 12:20:35;;;;;;;2.53;1.70;;;;;;;7.77;88.27;97246.91;6167371;28;20230;-42
2022/11/24 12:23:47;;;;;;;6.00;1.93;;;;;;;8.04;89.66;97243.94;6166139;28;20256;-43
2022/11/24 12:27:08;;;;;;;2.73;2.03;;;;;;;8.09;87.41;97251.44;6164982;28;20338;-42
2022/11/24 12:30:14;;;;;;;3.23;1.50;;;;;;;8.12;86.13;97252.06;6166462;28;20234;-43
2022/11/24 12:33:19;;;;;;;4.40;1.87;;;;;;;7.91;83.98;97250.25;6166652;28;20345;-43
2022/11/24 12:36:36;;;;;;;2.67;1.60;;;;;;;7.81;85.55;97249.25;6206571;28;20238;-42
2022/11/24 12:39:47;;;;;;;5.40;2.03;;;;;;;7.80;85.37;97251.06;6292748;28;20684;-43
2022/11/24 12:43:05;;;;;;;2.43;1.70;;;;;;;7.75;83.85;97253.22;6273816;28;20233;-42
2022/11/24 12:46:28;;;;;;;2.60;1.80;;;;;;;7.68;84.50;97259.88;6286010;28;20238;-43
2022/11/24 12:49:46;;;;;;;4.53;1.93;;;;;;;7.72;84.73;97256.06;6252574;28;20224;-42
2022/11/24 12:53:33;;;;;;;5.10;1.97;;;;;;;7.73;84.04;97255.09;6290555;28;20256;-43
2022/11/24 12:56:39;;;;;;;5.20;2.00;;;;;;;7.65;83.43;97253.06;6198831;28;20229;-42
2022/11/24 12:59:56;;;;;;;6.23;1.90;;;;;;;7.71;84.38;97267.50;6199210;28;20298;-43
2022/11/24 13:03:24;;;;;;;2.63;1.63;;;;;;;7.62;83.78;97253.28;6200582;28;20568;-43
2022/11/24 13:06:49;;;;;;;6.27;1.93;;;;;;;7.67;84.37;97256.41;6201967;28;20224;-42
2022/11/24 13:10:20;;;;;;;1.93;1.43;;;;;;;7.69;85.28;97264.16;6194443;28;20713;-43
2022/11/24 13:14:05;;;;;;;4.77;1.50;;;;;;;7.62;85.67;97266.41;6181363;28;20232;-42
2022/11/24 13:17:31;;;;;;;4.63;2.30;;;;;;;7.54;85.36;97270.56;6202019;28;20243;-44
2022/11/24 13:20:53;;;;;;;5.83;1.90;;;;;;;7.46;85.51;97265.91;6201835;28;20228;-43
2022/11/24 13:24:15;;;;;;;6.80;2.30;;;;;;;7.44;85.45;97273.06;6198388;28;20796;-44
2022/11/24 13:27:26;;;;;;;5.00;2.13;;;;;;;7.50;85.72;97267.34;6198029;28;20232;-44
2022/11/24 13:30:34;;;;;;;5.67;1.90;;;;;;;7.52;85.60;97270.69;6252075;28;20246;-42
2022/11/24 13:33:37;;;;;;;3.63;1.60;;;;;;;7.50;85.47;97275.22;6285700;28;20601;-42
2022/11/24 13:36:52;;;;;;;2.47;1.67;;;;;;;7.48;86.42;97274.50;6256864;28;20242;-42
2022/11/24 13:39:57;;;;;;;3.73;1.70;;;;;;;7.40;87.34;97277.69;6287430;28;20234;-43
2022/11/24 13:43:01;;;;;;;3.23;1.57;;;;;;;7.34;86.66;97280.78;6293150;28;20324;-43
2022/11/24 13:46:03;;;;;;;5.30;2.00;;;;;;;7.32;87.10;97287.91;6290636;28;20502;-42
2022/11/24 13:49:13;;;;;;;4.13;1.53;;;;;;;7.29;87.49;97288.13;6291906;28;20229;-42
2022/11/24 13:52:39;;;;;;;3.83;1.40;;;;;;;7.26;86.43;97282.28;6287141;28;20260;-43
2022/11/24 13:55:58;;;;;;;3.17;1.33;;;;;;;7.26;86.75;97282.28;6289944;28;20600;-43
2022/11/24 13:59:15;;;;;;;2.07;1.40;;;;;;;7.23;86.83;97285.97;6286166;28;20254;-43
2022/11/24 14:02:22;;;;;;;4.83;1.50;;;;;;;7.20;86.68;97291.44;6269055;28;20596;-43
2022/11/24 14:05:46;;;;;;;3.10;1.50;;;;;;;7.21;86.25;97298.34;6292058;28;20593;-43
2022/11/24 14:08:49;;;;;;;2.87;1.50;;;;;;;7.19;87.00;97292.38;6290786;28;20229;-43
2022/11/24 14:12:13;;;;;;;3.80;1.20;;;;;;;7.18;86.97;97303.84;6290824;28;20253;-43
2022/11/24 14:15:33;;;;;;;1.53;1.10;;;;;;;7.11;87.83;97297.34;6285419;28;20222;-43
2022/11/24 14:18:37;;;;;;;4.57;1.77;;;;;;;7.05;88.69;97310.91;6286521;28;20226;-42
2022/11/24 14:21:43;;;;;;;3.97;1.50;;;;;;;6.98;89.41;97310.53;6286278;28;20226;-43
2022/11/24 14:24:57;;;;;;;5.83;1.57;;;;;;;7.02;87.11;97304.09;6286769;28;20233;-44
2022/11/24 14:28:00;;;;;;;5.07;1.90;;;;;;;7.06;87.13;97315.22;6286577;28;20601;-42
2022/11/24 14:31:29;;;;;;;2.20;1.30;;;;;;;7.04;87.77;97312.72;6285405;28;20616;-43
2022/11/24 14:34:34;;;;;;;4.70;1.73;;;;;;;7.02;88.49;97313.75;6285275;28;20249;-42
2022/11/24 14:37:37;;;;;;;6.60;2.20;;;;;;;7.10;87.22;97321.06;6288648;28;20340;-42
2022/11/24 14:40:40;;;;;;;5.23;1.63;;;;;;;7.16;86.45;97320.66;6290479;28;20233;-43
2022/11/24 14:43:43;;;;;;;3.53;1.37;;;;;;;7.15;86.42;97324.22;6287161;28;20377;-44
2022/11/24 14:46:46;;;;;;;6.23;1.60;;;;;;;7.06;87.45;97325.72;6290428;28;20232;-43
2022/11/24 14:49:49;;;;;;;3.97;1.80;;;;;;;7.03;87.52;97336.44;6288925;28;20310;-44
2022/11/24 14:52:54;;;;;;;6.13;1.80;;;;;;;7.04;86.79;97330.22;6289516;28;20264;-42
2022/11/24 14:56:27;;;;;;;2.90;1.63;;;;;;;7.03;86.99;97333.81;6284476;28;20771;-43